sensor_id;sensor_type;location;lat;lon;timestamp;pressure;altitude;pressure_sealevel;temperature;humidity
5574;BME280;2563;52.242;7.956;2023-02-03T00:00:22;100230.69;;;7.58;100.00
5574;BME280;2563;52.242;7.956;2023-02-03T00:02:47;100225.56;;;7.58;100.00
5574;BME280;2563;52.242;7.956;2023-02-03T00:05:13;100205.06;;;7.59;100.00
5574;BME280;2563;52.242;7.956;2023-02-03T00:07:38;100207.59;;;7.61;100.00
5574;BME280;2563;52.242;7.956;2023-02-03T00:10:05;100211.88;;;7.60;100.00
5574;BME280;2563;52.242;7.956;2023-02-03T00:12:31;100207.59;;;7.61;100.00
5574;BME280;2563;52.242;7.956;2023-02-03T00:14:56;100201.63;;;7.60;100.00
5574;BME280;2563;52.242;7.956;2023-02-03T00:17:21;100198.22;;;7.61;100.00
5574;BME280;2563;52.242;7.956;2023-02-03T00:19:46;100204.19;;;7.60;100.00
5574;BME280;2563;52.242;7.956;2023-02-03T00:22:12;100206.72;;;7.62;100.00
5574;BME280;2563;52.242;7.956;2023-02-03T00:24:37;100197.25;;;7.67;100.00
5574;BME280;2563;52.242;7.956;2023-02-03T00:27:03;100189.53;;;7.69;100.00
5574;BME280;2563;52.242;7.956;2023-02-03T00:29:28;100176.69;;;7.70;100.00
5574;BME280;2563;52.242;7.956;2023-02-03T00:31:54;100164.72;;;7.71;100.00
5574;BME280;2563;52.242;7.956;2023-02-03T00:34:19;100160.47;;;7.71;100.00
5574;BME280;2563;52.242;7.956;2023-02-03T00:36:45;100145.94;;;7.70;100.00
5574;BME280;2563;52.242;7.956;2023-02-03T00:39:16;100133.16;;;7.70;100.00
5574;BME280;2563;52.242;7.956;2023-02-03T00:41:41;100135.75;;;7.69;100.00
5574;BME280;2563;52.242;7.956;2023-02-03T00:44:07;100119.50;;;7.70;100.00
5574;BME280;2563;52.242;7.956;2023-02-03T00:46:32;100116.09;;;7.69;100.00
5574;BME280;2563;52.242;7.956;2023-02-03T00:49:00;100103.28;;;7.69;100.00
5574;BME280;2563;52.242;7.956;2023-02-03T00:51:25;100035.78;;;7.72;100.00
5574;BME280;2563;52.242;7.956;2023-02-03T00:53:51;100046.03;;;7.72;100.00
5574;BME280;2563;52.242;7.956;2023-02-03T00:56:16;100040.91;;;7.72;100.00
5574;BME280;2563;52.242;7.956;2023-02-03T00:58:42;100038.28;;;7.73;100.00
5574;BME280;2563;52.242;7.956;2023-02-03T01:01:07;100013.53;;;7.74;100.00
5574;BME280;2563;52.242;7.956;2023-02-03T01:03:32;100003.31;;;7.72;100.00
5574;BME280;2563;52.242;7.956;2023-02-03T01:06:16;99967.34;;;7.78;100.00
5574;BME280;2563;52.242;7.956;2023-02-03T01:08:42;99957.94;;;7.77;100.00
5574;BME280;2563;52.242;7.956;2023-02-03T01:11:11;99945.94;;;7.79;100.00
5574;BME280;2563;52.242;7.956;2023-02-03T01:13:37;99917.75;;;7.81;100.00
5574;BME280;2563;52.242;7.956;2023-02-03T01:16:07;99904.97;;;7.79;100.00
5574;BME280;2563;52.242;7.956;2023-02-03T01:18:33;99887.03;;;7.79;100.00
5574;BME280;2563;52.242;7.956;2023-02-03T01:21:07;99867.34;;;7.81;100.00
5574;BME280;2563;52.242;7.956;2023-02-03T01:23:33;99841.66;;;7.84;100.00
5574;BME280;2563;52.242;7.956;2023-02-03T01:26:08;99822.03;;;7.83;100.00
5574;BME280;2563;52.242;7.956;2023-02-03T01:28:34;99801.50;;;7.85;100.00
5574;BME280;2563;52.242;7.956;2023-02-03T01:31:11;99821.16;;;7.84;100.00
5574;BME280;2563;52.242;7.956;2023-02-03T01:33:36;99794.59;;;7.88;100.00
5574;BME280;2563;52.242;7.956;2023-02-03T01:36:08;99757.81;;;7.89;100.00
5574;BME280;2563;52.242;7.956;2023-02-03T01:38:34;99742.38;;;7.93;100.00
5574;BME280;2563;52.242;7.956;2023-02-03T01:41:00;99719.38;;;7.89;100.00
5574;BME280;2563;52.242;7.956;2023-02-03T01:43:34;99697.16;;;7.90;100.00
5574;BME280;2563;52.242;7.956;2023-02-03T01:46:03;99675.00;;;7.89;100.00
5574;BME280;2563;52.242;7.956;2023-02-03T01:48:31;99660.56;;;7.86;100.00
5574;BME280;2563;52.242;7.956;2023-02-03T01:51:01;99624.69;;;7.86;100.00
5574;BME280;2563;52.242;7.956;2023-02-03T01:53:27;99603.38;;;7.84;100.00
5574;BME280;2563;52.242;7.956;2023-02-03T01:55:53;99563.19;;;7.86;100.00
5574;BME280;2563;52.242;7.956;2023-02-03T01:58:22;99517.09;;;7.86;100.00
5574;BME280;2563;52.242;7.956;2023-02-03T02:00:50;99447.03;;;7.87;100.00
5574;BME280;2563;52.242;7.956;2023-02-03T02:03:20;99375.41;;;7.84;100.00
5574;BME280;2563;52.242;7.956;2023-02-03T02:05:59;99302.00;;;7.83;100.00
5574;BME280;2563;52.242;7.956;2023-02-03T02:08:27;99243.13;;;7.82;100.00
5574;BME280;2563;52.242;7.956;2023-02-03T02:10:53;99217.53;;;7.82;100.00
5574;BME280;2563;52.242;7.956;2023-02-03T02:13:20;99184.22;;;7.82;100.00
5574;BME280;2563;52.242;7.956;2023-02-03T02:15:57;99146.44;;;7.88;100.00
5574;BME280;2563;52.242;7.956;2023-02-03T02:26:38;99019.13;;;7.91;100.00
5574;BME280;2563;52.242;7.956;2023-02-03T02:35:14;98977.38;;;7.88;100.00
5574;BME280;2563;52.242;7.956;2023-02-03T02:43:22;98960.28;;;7.89;100.00
5574;BME280;2563;52.242;7.956;2023-02-03T02:46:18;98967.00;;;7.92;100.00
5574;BME280;2563;52.242;7.956;2023-02-03T02:48:51;98966.88;;;7.95;100.00
5574;BME280;2563;52.242;7.956;2023-02-03T02:51:20;98946.38;;;7.95;100.00
5574;BME280;2563;52.242;7.956;2023-02-03T02:54:01;98920.00;;;7.93;100.00
5574;BME280;2563;52.242;7.956;2023-02-03T02:56:29;98913.22;;;7.92;100.00
5574;BME280;2563;52.242;7.956;2023-02-03T02:58:57;98919.25;;;7.91;100.00
5574;BME280;2563;52.242;7.956;2023-02-03T03:01:23;98903.97;;;7.87;100.00
5574;BME280;2563;52.242;7.956;2023-02-03T03:03:49;98898.75;;;7.91;100.00
5574;BME280;2563;52.242;7.956;2023-02-03T03:06:21;98905.53;;;7.92;100.00
5574;BME280;2563;52.242;7.956;2023-02-03T03:11:18;98921.19;;;7.84;100.00
5574;BME280;2563;52.242;7.956;2023-02-03T03:13:50;98929.72;;;7.84;100.00
5574;BME280;2563;52.242;7.956;2023-02-03T03:16:20;98931.50;;;7.82;100.00
5574;BME280;2563;52.242;7.956;2023-02-03T03:19:11;98946.94;;;7.81;100.00
5574;BME280;2563;52.242;7.956;2023-02-03T03:21:48;98962.88;;;7.87;100.00
5574;BME280;2563;52.242;7.956;2023-02-03T03:24:17;98970.56;;;7.87;100.00
5574;BME280;2563;52.242;7.956;2023-02-03T03:26:55;98975.81;;;7.84;100.00
5574;BME280;2563;52.242;7.956;2023-02-03T03:29:37;98991.19;;;7.84;100.00
5574;BME280;2563;52.242;7.956;2023-02-03T03:32:04;98987.50;;;7.92;100.00
5574;BME280;2563;52.242;7.956;2023-02-03T03:34:31;99030.16;;;7.93;100.00
5574;BME280;2563;52.242;7.956;2023-02-03T03:42:22;99098.44;;;7.94;100.00
5574;BME280;2563;52.242;7.956;2023-02-03T03:44:56;99132.72;;;7.89;100.00
5574;BME280;2563;52.242;7.956;2023-02-03T03:47:29;99155.91;;;7.86;100.00
5574;BME280;2563;52.242;7.956;2023-02-03T03:49:56;99202.03;;;7.85;100.00
5574;BME280;2563;52.242;7.956;2023-02-03T03:52:29;99266.84;;;7.88;100.00
5574;BME280;2563;52.242;7.956;2023-02-03T03:54:56;99346.25;;;7.88;100.00
5574;BME280;2563;52.242;7.956;2023-02-03T03:57:32;99444.47;;;7.87;100.00
5574;BME280;2563;52.242;7.956;2023-02-03T04:00:03;99514.50;;;7.88;100.00
5574;BME280;2563;52.242;7.956;2023-02-03T04:02:31;99560.53;;;7.89;100.00
5574;BME280;2563;52.242;7.956;2023-02-03T04:04:59;99604.22;;;7.85;100.00
5574;BME280;2563;52.242;7.956;2023-02-03T04:07:37;99640.88;;;7.87;100.00
5574;BME280;2563;52.242;7.956;2023-02-03T04:10:06;99671.53;;;7.90;100.00
5574;BME280;2563;52.242;7.956;2023-02-03T04:12:36;99698.84;;;7.91;100.00
5574;BME280;2563;52.242;7.956;2023-02-03T04:15:02;99731.28;;;7.92;100.00
5574;BME280;2563;52.242;7.956;2023-02-03T04:17:27;99759.50;;;7.91;100.00
5574;BME280;2563;52.242;7.956;2023-02-03T04:19:52;99764.69;;;7.87;100.00
5574;BME280;2563;52.242;7.956;2023-02-03T04:22:18;99797.09;;;7.90;100.00
5574;BME280;2563;52.242;7.956;2023-02-03T04:24:43;99807.38;;;7.88;100.00
5574;BME280;2563;52.242;7.956;2023-02-03T04:27:08;99834.75;;;7.88;100.00
5574;BME280;2563;52.242;7.956;2023-02-03T04:29:34;99851.69;;;7.92;100.00
5574;BME280;2563;52.242;7.956;2023-02-03T04:31:59;99857.72;;;7.91;100.00
5574;BME280;2563;52.242;7.956;2023-02-03T04:34:24;99862.06;;;7.87;100.00
5574;BME280;2563;52.242;7.956;2023-02-03T04:36:50;99869.81;;;7.86;100.00
5574;BME280;2563;52.242;7.956;2023-02-03T04:39:15;99874.00;;;7.88;100.00
5574;BME280;2563;52.242;7.956;2023-02-03T04:41:40;99868.78;;;7.93;100.00
5574;BME280;2563;52.242;7.956;2023-02-03T04:44:06;99866.97;;;7.97;100.00
5574;BME280;2563;52.242;7.956;2023-02-03T04:46:31;99869.53;;;7.97;100.00
5574;BME280;2563;52.242;7.956;2023-02-03T04:48:56;99884.09;;;7.95;100.00
5574;BME280;2563;52.242;7.956;2023-02-03T04:51:22;99877.31;;;7.92;100.00
5574;BME280;2563;52.242;7.956;2023-02-03T04:53:47;99869.50;;;7.98;100.00
5574;BME280;2563;52.242;7.956;2023-02-03T04:56:12;99879.84;;;7.94;100.00
5574;BME280;2563;52.242;7.956;2023-02-03T04:58:40;99893.50;;;7.94;100.00
5574;BME280;2563;52.242;7.956;2023-02-03T05:01:07;99899.47;;;7.95;100.00
5574;BME280;2563;52.242;7.956;2023-02-03T05:03:33;99897.72;;;7.97;100.00
5574;BME280;2563;52.242;7.956;2023-02-03T05:05:59;99913.91;;;7.99;100.00
5574;BME280;2563;52.242;7.956;2023-02-03T05:08:24;99907.91;;;8.00;100.00
5574;BME280;2563;52.242;7.956;2023-02-03T05:10:49;99920.66;;;8.01;100.00
5574;BME280;2563;52.242;7.956;2023-02-03T05:13:15;99940.34;;;8.01;100.00
5574;BME280;2563;52.242;7.956;2023-02-03T05:15:40;99939.53;;;7.99;100.00
5574;BME280;2563;52.242;7.956;2023-02-03T05:18:05;99967.72;;;7.99;100.00
5574;BME280;2563;52.242;7.956;2023-02-03T05:20:31;99970.97;;;8.05;100.00
5574;BME280;2563;52.242;7.956;2023-02-03T05:22:57;99990.66;;;8.03;100.00
5574;BME280;2563;52.242;7.956;2023-02-03T05:25:22;100006.97;;;8.01;100.00
5574;BME280;2563;52.242;7.956;2023-02-03T05:27:48;100018.97;;;7.99;100.00
5574;BME280;2563;52.242;7.956;2023-02-03T05:30:13;100031.03;;;7.95;100.00
5574;BME280;2563;52.242;7.956;2023-02-03T05:32:39;100042.97;;;7.95;100.00
5574;BME280;2563;52.242;7.956;2023-02-03T05:35:04;99983.25;;;7.93;100.00
5574;BME280;2563;52.242;7.956;2023-02-03T05:37:29;99979.00;;;7.90;100.00
5574;BME280;2563;52.242;7.956;2023-02-03T05:39:55;99991.88;;;7.88;100.00
5574;BME280;2563;52.242;7.956;2023-02-03T05:42:46;99990.13;;;7.91;100.00
5574;BME280;2563;52.242;7.956;2023-02-03T05:45:11;99990.25;;;7.84;100.00
5574;BME280;2563;52.242;7.956;2023-02-03T05:47:37;100008.28;;;7.80;100.00
5574;BME280;2563;52.242;7.956;2023-02-03T05:50:02;100000.56;;;7.81;100.00
5574;BME280;2563;52.242;7.956;2023-02-03T05:52:28;100003.97;;;7.80;100.00
5574;BME280;2563;52.242;7.956;2023-02-03T05:54:53;100016.00;;;7.78;100.00
5574;BME280;2563;52.242;7.956;2023-02-03T05:57:18;100004.06;;;7.77;100.00
5574;BME280;2563;52.242;7.956;2023-02-03T05:59:44;99999.72;;;7.81;100.00
5574;BME280;2563;52.242;7.956;2023-02-03T06:02:09;99997.09;;;7.82;100.00
5574;BME280;2563;52.242;7.956;2023-02-03T06:04:34;100002.31;;;7.79;100.00
5574;BME280;2563;52.242;7.956;2023-02-03T06:07:00;99996.38;;;7.77;100.00
5574;BME280;2563;52.242;7.956;2023-02-03T06:09:25;99995.53;;;7.78;100.00
5574;BME280;2563;52.242;7.956;2023-02-03T06:11:51;100003.22;;;7.77;100.00
5574;BME280;2563;52.242;7.956;2023-02-03T06:14:16;100007.50;;;7.76;100.00
5574;BME280;2563;52.242;7.956;2023-02-03T06:16:41;100004.06;;;7.77;100.00
5574;BME280;2563;52.242;7.956;2023-02-03T06:19:07;100004.06;;;7.77;100.00
5574;BME280;2563;52.242;7.956;2023-02-03T06:21:32;99994.59;;;7.81;100.00
5574;BME280;2563;52.242;7.956;2023-02-03T06:23:57;99998.81;;;7.83;100.00
5574;BME280;2563;52.242;7.956;2023-02-03T06:26:23;100027.03;;;7.80;100.00
5574;BME280;2563;52.242;7.956;2023-02-03T06:28:49;100019.31;;;7.83;100.00
5574;BME280;2563;52.242;7.956;2023-02-03T06:31:15;100001.38;;;7.83;100.00
5574;BME280;2563;52.242;7.956;2023-02-03T06:33:40;99993.63;;;7.86;100.00
5574;BME280;2563;52.242;7.956;2023-02-03T06:36:06;99975.50;;;7.94;100.00
5574;BME280;2563;52.242;7.956;2023-02-03T06:38:31;99990.97;;;7.91;100.00
5574;BME280;2563;52.242;7.956;2023-02-03T06:40:57;99967.69;;;8.00;100.00
5574;BME280;2563;52.242;7.956;2023-02-03T06:43:22;99980.44;;;8.02;100.00
5574;BME280;2563;52.242;7.956;2023-02-03T06:45:47;99970.06;;;8.08;100.00
5574;BME280;2563;52.242;7.956;2023-02-03T06:48:13;99976.91;;;8.07;100.00
5574;BME280;2563;52.242;7.956;2023-02-03T06:50:39;99975.28;;;8.03;100.00
5574;BME280;2563;52.242;7.956;2023-02-03T06:53:05;99976.09;;;8.07;100.00
5574;BME280;2563;52.242;7.956;2023-02-03T06:55:30;99977.75;;;8.08;100.00
5574;BME280;2563;52.242;7.956;2023-02-03T06:57:56;99982.00;;;8.09;100.00
5574;BME280;2563;52.242;7.956;2023-02-03T07:00:21;99970.88;;;8.10;100.00
5574;BME280;2563;52.242;7.956;2023-02-03T07:02:52;99985.34;;;8.13;100.00
5574;BME280;2563;52.242;7.956;2023-02-03T07:05:18;99987.09;;;8.10;100.00
5574;BME280;2563;52.242;7.956;2023-02-03T07:07:43;99998.25;;;8.08;100.00
5574;BME280;2563;52.242;7.956;2023-02-03T07:10:09;99995.72;;;8.06;100.00
5574;BME280;2563;52.242;7.956;2023-02-03T07:12:34;99982.75;;;8.14;100.00
5574;BME280;2563;52.242;7.956;2023-02-03T07:15:01;99989.63;;;8.12;100.00
5574;BME280;2563;52.242;7.956;2023-02-03T07:17:26;99992.19;;;8.12;100.00
5574;BME280;2563;52.242;7.956;2023-02-03T07:19:52;100003.13;;;8.19;100.00
5574;BME280;2563;52.242;7.956;2023-02-03T07:22:17;100009.13;;;8.19;100.00
5574;BME280;2563;52.242;7.956;2023-02-03T07:24:42;100022.13;;;8.10;100.00
5574;BME280;2563;52.242;7.956;2023-02-03T07:27:08;100038.44;;;8.06;100.00
5574;BME280;2563;52.242;7.956;2023-02-03T07:29:33;100037.72;;;8.01;100.00
5574;BME280;2563;52.242;7.956;2023-02-03T07:31:58;100029.25;;;7.97;100.00
5574;BME280;2563;52.242;7.956;2023-02-03T07:34:26;100037.84;;;7.95;100.00
5574;BME280;2563;52.242;7.956;2023-02-03T07:36:52;100047.34;;;7.89;100.00
5574;BME280;2563;52.242;7.956;2023-02-03T07:39:17;100038.91;;;7.84;100.00
5574;BME280;2563;52.242;7.956;2023-02-03T07:41:42;100022.72;;;7.82;100.00
5574;BME280;2563;52.242;7.956;2023-02-03T07:44:08;100033.06;;;7.79;100.00
5574;BME280;2563;52.242;7.956;2023-02-03T07:46:33;100022.81;;;7.79;100.00
5574;BME280;2563;52.242;7.956;2023-02-03T07:48:59;100021.06;;;7.81;100.00
5574;BME280;2563;52.242;7.956;2023-02-03T07:51:24;100012.47;;;7.82;100.00
5574;BME280;2563;52.242;7.956;2023-02-03T07:53:50;100004.81;;;7.82;100.00
5574;BME280;2563;52.242;7.956;2023-02-03T07:56:16;100000.50;;;7.84;100.00
5574;BME280;2563;52.242;7.956;2023-02-03T07:58:41;99997.91;;;7.86;100.00
5574;BME280;2563;52.242;7.956;2023-02-03T08:01:15;99983.38;;;7.86;100.00
5574;BME280;2563;52.242;7.956;2023-02-03T08:03:41;99981.56;;;7.90;100.00
5574;BME280;2563;52.242;7.956;2023-02-03T08:06:07;99972.19;;;7.89;100.00
5574;BME280;2563;52.242;7.956;2023-02-03T08:08:33;99960.22;;;7.91;100.00
5574;BME280;2563;52.242;7.956;2023-02-03T08:10:58;99926.88;;;7.93;100.00
5574;BME280;2563;52.242;7.956;2023-02-03T08:13:24;99910.50;;;7.98;100.00
5574;BME280;2563;52.242;7.956;2023-02-03T08:15:49;99897.66;;;8.00;100.00
5574;BME280;2563;52.242;7.956;2023-02-03T08:18:15;99888.19;;;8.02;100.00
5574;BME280;2563;52.242;7.956;2023-02-03T08:20:40;99898.41;;;8.03;100.00
5574;BME280;2563;52.242;7.956;2023-02-03T08:23:05;99870.19;;;8.05;100.00
5574;BME280;2563;52.242;7.956;2023-02-03T08:25:31;99852.19;;;8.06;100.00
5574;BME280;2563;52.242;7.956;2023-02-03T08:27:56;99839.28;;;8.11;100.00
5574;BME280;2563;52.242;7.956;2023-02-03T08:30:22;99841.78;;;8.14;100.00
5574;BME280;2563;52.242;7.956;2023-02-03T08:32:48;99828.97;;;8.14;100.00
5574;BME280;2563;52.242;7.956;2023-02-03T08:35:13;99815.16;;;8.18;100.00
5574;BME280;2563;52.242;7.956;2023-02-03T08:37:39;99818.53;;;8.20;100.00
5574;BME280;2563;52.242;7.956;2023-02-03T08:40:05;99810.69;;;8.26;100.00
5574;BME280;2563;52.242;7.956;2023-02-03T08:42:31;99812.25;;;8.32;100.00
5574;BME280;2563;52.242;7.956;2023-02-03T08:44:57;99805.31;;;8.36;100.00
5574;BME280;2563;52.242;7.956;2023-02-03T08:47:23;99811.22;;;8.38;100.00
5574;BME280;2563;52.242;7.956;2023-02-03T08:49:48;99824.94;;;8.37;100.00
5574;BME280;2563;52.242;7.956;2023-02-03T08:52:14;99828.41;;;8.36;100.00
5574;BME280;2563;52.242;7.956;2023-02-03T08:54:39;99838.66;;;8.36;100.00
5574;BME280;2563;52.242;7.956;2023-02-03T08:57:05;99845.44;;;8.37;100.00
5574;BME280;2563;52.242;7.956;2023-02-03T08:59:31;99847.09;;;8.41;100.00
5574;BME280;2563;52.242;7.956;2023-02-03T09:02:01;99859.91;;;8.39;100.00
5574;BME280;2563;52.242;7.956;2023-02-03T09:04:26;99859.91;;;8.41;100.00
5574;BME280;2563;52.242;7.956;2023-02-03T09:06:52;99854.66;;;8.45;100.00
5574;BME280;2563;52.242;7.956;2023-02-03T09:09:21;99862.25;;;8.50;100.00
5574;BME280;2563;52.242;7.956;2023-02-03T09:11:47;99870.66;;;8.55;100.00
5574;BME280;2563;52.242;7.956;2023-02-03T09:14:12;99862.06;;;8.56;100.00
5574;BME280;2563;52.242;7.956;2023-02-03T09:16:38;99863.66;;;8.60;100.00
5574;BME280;2563;52.242;7.956;2023-02-03T09:19:04;99876.50;;;8.60;100.00
5574;BME280;2563;52.242;7.956;2023-02-03T09:21:29;99883.16;;;8.66;100.00
5574;BME280;2563;52.242;7.956;2023-02-03T09:23:54;99883.06;;;8.69;100.00
5574;BME280;2563;52.242;7.956;2023-02-03T09:26:20;99899.25;;;8.72;100.00
5574;BME280;2563;52.242;7.956;2023-02-03T09:28:45;99909.50;;;8.72;100.00
5574;BME280;2563;52.242;7.956;2023-02-03T09:31:12;99916.25;;;8.77;100.00
5574;BME280;2563;52.242;7.956;2023-02-03T09:33:38;99939.47;;;8.70;100.00
5574;BME280;2563;52.242;7.956;2023-02-03T09:36:05;99934.25;;;8.73;100.00
5574;BME280;2563;52.242;7.956;2023-02-03T09:38:31;99889.78;;;8.75;100.00
5574;BME280;2563;52.242;7.956;2023-02-03T09:41:02;99892.44;;;8.71;100.00
5574;BME280;2563;52.242;7.956;2023-02-03T09:46:34;99913.88;;;8.69;100.00
5574;BME280;2563;52.242;7.956;2023-02-03T09:51:50;99942.22;;;8.64;100.00
5574;BME280;2563;52.242;7.956;2023-02-03T09:54:18;99943.19;;;8.60;100.00
5574;BME280;2563;52.242;7.956;2023-02-03T09:56:46;99951.75;;;8.59;100.00
5574;BME280;2563;52.242;7.956;2023-02-03T09:59:17;99949.97;;;8.63;100.00
5574;BME280;2563;52.242;7.956;2023-02-03T10:01:51;99958.50;;;8.62;100.00
5574;BME280;2563;52.242;7.956;2023-02-03T10:07:09;99961.75;;;8.70;100.00
5574;BME280;2563;52.242;7.956;2023-02-03T10:09:49;99977.88;;;8.73;100.00
5574;BME280;2563;52.242;7.956;2023-02-03T10:14:55;99983.69;;;8.82;100.00
5574;BME280;2563;52.242;7.956;2023-02-03T10:20:11;99991.38;;;8.82;100.00
5574;BME280;2563;52.242;7.956;2023-02-03T10:22:43;99995.50;;;8.87;100.00
5574;BME280;2563;52.242;7.956;2023-02-03T10:25:24;100015.09;;;8.90;100.00
5574;BME280;2563;52.242;7.956;2023-02-03T10:27:58;100015.81;;;8.95;100.00
5574;BME280;2563;52.242;7.956;2023-02-03T10:30:29;100032.97;;;8.93;100.00
5574;BME280;2563;52.242;7.956;2023-02-03T10:35:49;100059.53;;;8.92;100.00
5574;BME280;2563;52.242;7.956;2023-02-03T10:41:05;100094.81;;;8.84;100.00
5574;BME280;2563;52.242;7.956;2023-02-03T10:43:31;100106.97;;;8.76;100.00
5574;BME280;2563;52.242;7.956;2023-02-03T10:46:19;100114.75;;;8.72;100.00
5574;BME280;2563;52.242;7.956;2023-02-03T10:48:45;100120.03;;;8.66;100.00
5574;BME280;2563;52.242;7.956;2023-02-03T10:51:21;100127.81;;;8.62;100.00
5574;BME280;2563;52.242;7.956;2023-02-03T10:53:47;100149.34;;;8.56;100.00
5574;BME280;2563;52.242;7.956;2023-02-03T10:56:15;100147.72;;;8.52;100.00
5574;BME280;2563;52.242;7.956;2023-02-03T10:58:48;100154.47;;;8.56;100.00
5574;BME280;2563;52.242;7.956;2023-02-03T11:01:16;100156.13;;;8.59;100.00
5574;BME280;2563;52.242;7.956;2023-02-03T11:03:53;100142.53;;;8.55;100.00
5574;BME280;2563;52.242;7.956;2023-02-03T11:06:19;100144.28;;;8.53;100.00
5574;BME280;2563;52.242;7.956;2023-02-03T11:08:47;100147.72;;;8.52;100.00
5574;BME280;2563;52.242;7.956;2023-02-03T11:11:18;100133.94;;;8.56;100.00
5574;BME280;2563;52.242;7.956;2023-02-03T11:13:44;100139.91;;;8.58;100.00
5574;BME280;2563;52.242;7.956;2023-02-03T11:16:15;100139.00;;;8.59;100.00
5574;BME280;2563;52.242;7.956;2023-02-03T11:21:30;100135.53;;;8.62;100.00
5574;BME280;2563;52.242;7.956;2023-02-03T11:24:01;100136.34;;;8.64;100.00
5574;BME280;2563;52.242;7.956;2023-02-03T11:26:33;100133.75;;;8.64;100.00
5574;BME280;2563;52.242;7.956;2023-02-03T11:29:03;100126.94;;;8.64;100.00
5574;BME280;2563;52.242;7.956;2023-02-03T11:31:33;100138.94;;;8.62;100.00
5574;BME280;2563;52.242;7.956;2023-02-03T11:34:02;100145.84;;;8.60;100.00
5574;BME280;2563;52.242;7.956;2023-02-03T11:36:31;100141.41;;;8.67;100.00
5574;BME280;2563;52.242;7.956;2023-02-03T11:39:29;100133.66;;;8.68;100.00
5574;BME280;2563;52.242;7.956;2023-02-03T11:42:01;100152.63;;;8.61;100.00
5574;BME280;2563;52.242;7.956;2023-02-03T11:44:29;100168.88;;;8.62;100.00
5574;BME280;2563;52.242;7.956;2023-02-03T11:47:01;100160.31;;;8.63;100.00
5574;BME280;2563;52.242;7.956;2023-02-03T11:55:36;100188.56;;;8.61;100.00
5574;BME280;2563;52.242;7.956;2023-02-03T12:11:48;100224.81;;;8.85;100.00
5574;BME280;2563;52.242;7.956;2023-02-03T12:20:17;100260.38;;;9.02;100.00
5574;BME280;2563;52.242;7.956;2023-02-03T12:22:58;100294.56;;;9.04;100.00
5574;BME280;2563;52.242;7.956;2023-02-03T12:25:35;100309.03;;;9.08;100.00
5574;BME280;2563;52.242;7.956;2023-02-03T12:30:41;100330.03;;;9.63;100.00
5574;BME280;2563;52.242;7.956;2023-02-03T12:33:22;100360.88;;;9.63;100.00
5574;BME280;2563;52.242;7.956;2023-02-03T12:35:53;100471.00;;;9.39;100.00
5574;BME280;2563;52.242;7.956;2023-02-03T12:40:54;100554.31;;;9.26;100.00
5574;BME280;2563;52.242;7.956;2023-02-03T12:43:43;100568.06;;;9.22;100.00
5574;BME280;2563;52.242;7.956;2023-02-03T12:49:23;100628.94;;;9.16;100.00
5574;BME280;2563;52.242;7.956;2023-02-03T12:52:03;100658.13;;;9.12;100.00
5574;BME280;2563;52.242;7.956;2023-02-03T12:57:46;100722.47;;;9.03;100.00
5574;BME280;2563;52.242;7.956;2023-02-03T13:00:18;100737.88;;;9.02;100.00
5574;BME280;2563;52.242;7.956;2023-02-03T13:05:34;100897.03;;;9.05;100.00
5574;BME280;2563;52.242;7.956;2023-02-03T13:08:29;100920.97;;;9.10;100.00
5574;BME280;2563;52.242;7.956;2023-02-03T13:11:09;100932.03;;;9.13;100.00
5574;BME280;2563;52.242;7.956;2023-02-03T13:13:56;100919.22;;;9.10;100.00
5574;BME280;2563;52.242;7.956;2023-02-03T13:16:31;100930.34;;;9.09;100.00
5574;BME280;2563;52.242;7.956;2023-02-03T13:19:02;100934.59;;;9.12;100.00
5574;BME280;2563;52.242;7.956;2023-02-03T13:21:30;100956.03;;;9.12;100.00
5574;BME280;2563;52.242;7.956;2023-02-03T13:23:56;100965.47;;;9.10;100.00
5574;BME280;2563;52.242;7.956;2023-02-03T13:42:33;101012.75;;;8.88;100.00
5574;BME280;2563;52.242;7.956;2023-02-03T13:45:23;101025.59;;;8.89;100.00
5574;BME280;2563;52.242;7.956;2023-02-03T13:47:52;101019.59;;;8.86;100.00
5574;BME280;2563;52.242;7.956;2023-02-03T13:50:22;101014.53;;;8.81;100.00
5574;BME280;2563;52.242;7.956;2023-02-03T13:55:36;101044.50;;;8.76;100.00
5574;BME280;2563;52.242;7.956;2023-02-03T13:58:04;101037.69;;;8.73;100.00
5574;BME280;2563;52.242;7.956;2023-02-03T14:03:15;101041.13;;;8.71;100.00
5574;BME280;2563;52.242;7.956;2023-02-03T14:05:45;101039.44;;;8.68;100.00
5574;BME280;2563;52.242;7.956;2023-02-03T14:16:44;101057.53;;;8.56;100.00
5574;BME280;2563;52.242;7.956;2023-02-03T14:22:01;101054.94;;;8.56;100.00
5574;BME280;2563;52.242;7.956;2023-02-03T14:24:32;101279.03;;;8.60;100.00
5574;BME280;2563;52.242;7.956;2023-02-03T14:26:59;101303.81;;;8.59;100.00
5574;BME280;2563;52.242;7.956;2023-02-03T14:32:09;101317.53;;;8.52;100.00
5574;BME280;2563;52.242;7.956;2023-02-03T14:37:24;101323.53;;;8.37;100.00
5574;BME280;2563;52.242;7.956;2023-02-03T14:40:21;101319.25;;;8.38;100.00
5574;BME280;2563;52.242;7.956;2023-02-03T14:45:34;101322.72;;;8.34;100.00
5574;BME280;2563;52.242;7.956;2023-02-03T14:51:02;101336.41;;;8.20;100.00
5574;BME280;2563;52.242;7.956;2023-02-03T15:00:02;101353.53;;;8.03;100.00
5574;BME280;2563;52.242;7.956;2023-02-03T15:02:31;101362.06;;;7.99;100.00
5574;BME280;2563;52.242;7.956;2023-02-03T15:07:48;101381.72;;;7.92;100.00
5574;BME280;2563;52.242;7.956;2023-02-03T15:10:25;101378.31;;;7.88;100.00
5574;BME280;2563;52.242;7.956;2023-02-03T15:12:53;101395.41;;;7.96;100.00
5574;BME280;2563;52.242;7.956;2023-02-03T15:17:47;101387.72;;;7.93;100.00
5574;BME280;2563;52.242;7.956;2023-02-03T15:20:35;101390.28;;;7.91;100.00
5574;BME280;2563;52.242;7.956;2023-02-03T15:23:25;101398.81;;;7.92;100.00
5574;BME280;2563;52.242;7.956;2023-02-03T15:25:59;101403.94;;;7.88;100.00
5574;BME280;2563;52.242;7.956;2023-02-03T15:28:26;101404.81;;;7.91;100.00
5574;BME280;2563;52.242;7.956;2023-02-03T15:31:05;101403.94;;;7.88;100.00
5574;BME280;2563;52.242;7.956;2023-02-03T15:33:35;101406.50;;;7.87;100.00
5574;BME280;2563;52.242;7.956;2023-02-03T15:36:12;101401.38;;;7.79;100.00
5574;BME280;2563;52.242;7.956;2023-02-03T15:38:42;101411.63;;;7.76;100.00
5574;BME280;2563;52.242;7.956;2023-02-03T15:41:17;101403.06;;;7.73;100.00
5574;BME280;2563;52.242;7.956;2023-02-03T15:43:45;101400.50;;;7.70;100.00
5574;BME280;2563;52.242;7.956;2023-02-03T15:49:11;101400.53;;;7.71;100.00
5574;BME280;2563;52.242;7.956;2023-02-03T15:51:44;101405.63;;;7.66;100.00
5574;BME280;2563;52.242;7.956;2023-02-03T15:56:48;101397.91;;;7.59;100.00